createdAt,value
2023-04-19T00:00:46.467Z,151011.72
2023-04-19T00:03:13.711Z,151020.56
2023-04-19T00:05:40.837Z,151034.47
2023-04-19T00:08:07.084Z,151044.56
2023-04-19T00:10:35.158Z,151023.06
2023-04-19T00:13:01.636Z,151025.59
2023-04-19T00:15:27.641Z,151038.25
2023-04-19T00:17:53.503Z,151034.47
2023-04-19T00:20:21.248Z,151040.78
2023-04-19T00:22:47.497Z,151024.34
2023-04-19T00:25:13.384Z,151029.44
2023-04-19T00:27:39.451Z,151021.81
2023-04-19T00:30:05.835Z,151025.59
2023-04-19T00:32:31.646Z,151033.22
2023-04-19T00:34:57.486Z,151030.69
2023-04-19T00:37:23.398Z,151025.59
2023-04-19T00:39:49.415Z,151009.16
2023-04-19T00:42:15.241Z,150994.03
2023-04-19T00:44:41.593Z,150994.03
2023-04-19T00:47:08.158Z,150994.03
2023-04-19T00:49:34.051Z,150987.66
2023-04-19T00:52:00.030Z,151006.63
2023-04-19T00:54:26.211Z,150982.63
2023-04-19T00:56:52.485Z,150953.53
2023-04-19T00:59:18.704Z,150983.88
2023-04-19T01:01:44.854Z,150971.22
2023-04-19T01:04:10.906Z,150976.31
2023-04-19T01:06:39.623Z,150977.59
2023-04-19T01:09:05.536Z,150945.97
2023-04-19T01:11:31.531Z,150947.22
2023-04-19T01:13:57.979Z,150942.19
2023-04-19T01:16:26.032Z,150949.75
2023-04-19T01:18:52.289Z,150943.44
2023-04-19T01:21:18.072Z,150949.75
2023-04-19T01:23:44.293Z,150978.84
2023-04-19T01:26:10.375Z,150945.97
2023-04-19T01:28:36.911Z,150923.22
2023-04-19T01:31:03.163Z,150920.69
2023-04-19T01:33:28.970Z,150929.53
2023-04-19T01:35:54.952Z,150934.56
2023-04-19T01:38:20.857Z,150923.22
2023-04-19T01:40:46.927Z,150906.78
2023-04-19T01:43:13.827Z,150920.69
2023-04-19T01:45:39.788Z,150932.06
2023-04-19T01:48:06.088Z,150925.75
2023-04-19T01:50:32.158Z,150934.56
2023-04-19T01:52:59.045Z,150930.78
2023-04-19T01:55:25.202Z,150944.72
2023-04-19T01:57:54.708Z,150942.19
2023-04-19T02:00:21.581Z,150908.06
2023-04-19T02:02:47.959Z,150906.78
2023-04-19T02:05:13.898Z,150918.13
2023-04-19T02:07:39.728Z,150915.63
2023-04-19T02:10:08.761Z,150940.91
2023-04-19T02:12:35.841Z,150880.19
2023-04-19T02:15:01.628Z,150884.00
2023-04-19T02:17:27.824Z,150896.66
2023-04-19T02:19:53.868Z,150904.28
2023-04-19T02:22:20.252Z,150865.00
2023-04-19T02:24:46.619Z,150856.19
2023-04-19T02:27:12.849Z,150872.63
2023-04-19T02:29:39.380Z,150828.34
2023-04-19T02:32:08.130Z,150801.84
2023-04-19T02:34:34.581Z,150791.72
2023-04-19T02:37:01.019Z,150794.28
2023-04-19T02:39:26.901Z,150810.66
2023-04-19T02:41:52.934Z,150829.66
2023-04-19T02:44:19.221Z,150851.13
2023-04-19T02:46:49.734Z,150844.78
2023-04-19T02:49:16.192Z,150825.84
2023-04-19T02:51:41.977Z,150799.31
2023-04-19T02:54:07.762Z,150786.69
2023-04-19T02:56:33.576Z,150774.03
2023-04-19T02:59:03.780Z,150768.97
2023-04-19T03:01:32.766Z,150798.06
2023-04-19T03:03:58.867Z,150822.06
2023-04-19T03:06:25.439Z,150813.22
2023-04-19T03:08:51.498Z,150815.75
2023-04-19T03:11:17.717Z,150808.16
2023-04-19T03:13:43.736Z,150819.53
2023-04-19T03:16:09.884Z,150824.56
2023-04-19T03:18:35.901Z,150853.66
2023-04-19T03:21:02.533Z,150841.00
2023-04-19T03:23:28.669Z,150820.78
2023-04-19T03:25:54.494Z,150818.28
2023-04-19T03:28:20.377Z,150824.56
2023-04-19T03:30:46.174Z,150847.31
2023-04-19T03:33:12.065Z,150818.28
2023-04-19T03:35:38.014Z,150815.75
2023-04-19T03:38:03.944Z,150824.56
2023-04-19T03:40:32.152Z,150830.94
2023-04-19T03:42:57.960Z,150819.53
2023-04-19T03:45:23.881Z,150800.59
2023-04-19T03:47:49.691Z,150815.75
2023-04-19T03:50:15.635Z,150827.09
2023-04-19T03:52:41.459Z,150825.84
2023-04-19T03:55:07.984Z,150832.19
2023-04-19T03:57:33.761Z,150810.66
2023-04-19T03:59:59.790Z,150805.63
2023-04-19T04:02:25.638Z,150782.91
2023-04-19T04:04:54.876Z,150814.50
2023-04-19T04:07:22.400Z,150823.31
2023-04-19T04:09:48.864Z,150848.63
2023-04-19T04:12:14.828Z,150848.63
2023-04-19T04:14:40.617Z,150842.28
2023-04-19T04:17:06.738Z,150800.59
2023-04-19T04:19:32.574Z,150823.31
2023-04-19T04:21:58.423Z,150833.44
2023-04-19T04:24:25.437Z,150824.56
2023-04-19T04:26:51.285Z,150824.56
2023-04-19T04:29:17.412Z,150809.41
2023-04-19T04:31:43.341Z,150805.63
2023-04-19T04:34:09.336Z,150819.53
2023-04-19T04:36:38.830Z,150827.09
2023-04-19T04:39:05.623Z,150827.09
2023-04-19T04:41:31.585Z,150823.31
2023-04-19T04:44:22.541Z,150819.53
2023-04-19T04:46:43.569Z,150808.16
2023-04-19T04:49:09.438Z,150819.53
2023-04-19T04:51:36.489Z,150829.66
2023-04-19T04:54:02.630Z,150789.19
2023-04-19T04:56:28.428Z,150787.94
2023-04-19T04:58:54.292Z,150772.75
2023-04-19T05:01:21.431Z,150767.72
2023-04-19T05:03:47.352Z,150766.47
2023-04-19T05:06:13.666Z,150745.00
2023-04-19T05:08:39.554Z,150752.56
2023-04-19T05:11:05.413Z,150748.78
2023-04-19T05:13:31.202Z,150752.56
2023-04-19T05:15:57.049Z,150748.78
2023-04-19T05:18:22.913Z,150767.72
2023-04-19T05:20:48.751Z,150738.66
2023-04-19T05:23:14.691Z,150755.06
2023-04-19T05:25:40.595Z,150761.44
2023-04-19T05:28:06.442Z,150741.22
2023-04-19T05:30:32.211Z,150715.94
2023-04-19T05:32:58.467Z,150742.47
2023-04-19T05:35:24.245Z,150714.66
2023-04-19T05:37:50.070Z,150732.34
2023-04-19T05:40:15.953Z,150746.25
2023-04-19T05:42:41.990Z,150762.69
2023-04-19T05:45:08.299Z,150758.91
2023-04-19T05:47:34.246Z,150786.69
2023-04-19T05:50:00.210Z,150774.03
2023-04-19T05:52:26.944Z,150771.50
2023-04-19T05:54:52.772Z,150803.09
2023-04-19T05:57:18.604Z,150780.38
2023-04-19T05:59:44.533Z,150762.69
2023-04-19T06:02:10.479Z,150781.63
2023-04-19T06:04:36.454Z,150770.25
2023-04-19T06:07:04.453Z,150785.41
2023-04-19T06:09:30.699Z,150792.97
2023-04-19T06:11:57.239Z,150848.63
2023-04-19T06:14:23.186Z,150827.09
2023-04-19T06:16:49.145Z,150823.31
2023-04-19T06:19:15.230Z,150842.28
2023-04-19T06:21:41.137Z,150843.53
2023-04-19T06:24:07.162Z,150825.84
2023-04-19T06:26:32.996Z,150841.00
2023-04-19T06:28:58.776Z,150867.56
2023-04-19T06:31:24.750Z,150841.00
2023-04-19T06:33:50.551Z,150853.66
2023-04-19T06:36:16.491Z,150841.00
2023-04-19T06:38:43.921Z,150867.56
2023-04-19T06:41:10.113Z,150846.06
2023-04-19T06:43:36.052Z,150817.00
2023-04-19T06:46:03.965Z,150847.31
2023-04-19T06:48:30.225Z,150849.88
2023-04-19T06:50:56.463Z,150851.13
2023-04-19T06:53:22.685Z,150818.28
2023-04-19T06:55:48.778Z,150842.28
2023-04-19T06:58:14.599Z,150827.09
2023-04-19T07:00:40.448Z,150828.34
2023-04-19T07:03:06.346Z,150841.00
2023-04-19T07:05:32.168Z,150806.88
2023-04-19T07:07:58.115Z,150808.16
2023-04-19T07:10:23.993Z,150841.00
2023-04-19T07:12:50.832Z,150829.66
2023-04-19T07:15:16.718Z,150832.19
2023-04-19T07:17:42.562Z,150859.97
2023-04-19T07:20:08.751Z,150867.56
2023-04-19T07:22:34.900Z,150876.41
2023-04-19T07:25:00.862Z,150872.63
2023-04-19T07:27:26.968Z,150892.88
2023-04-19T07:29:52.911Z,150878.91
2023-04-19T07:32:19.077Z,150882.69
2023-04-19T07:34:45.477Z,150891.63
2023-04-19T07:37:12.161Z,150897.91
2023-04-19T07:39:41.073Z,150905.53
2023-04-19T07:42:06.962Z,150878.91
2023-04-19T07:44:32.739Z,150895.41
2023-04-19T07:46:58.783Z,150903.00
2023-04-19T07:49:24.772Z,150906.78
2023-04-19T07:51:50.667Z,150916.88
2023-04-19T07:54:19.368Z,150913.09
2023-04-19T07:56:45.582Z,150899.19
2023-04-19T07:59:11.389Z,150939.66
2023-04-19T08:01:37.397Z,150937.09
2023-04-19T08:04:04.052Z,150962.41
2023-04-19T08:06:31.123Z,150991.50
2023-04-19T08:08:56.925Z,150995.28
2023-04-19T08:11:24.341Z,150968.72
2023-04-19T08:14:02.579Z,150948.50
2023-04-19T08:17:14.537Z,150953.53
2023-04-19T08:19:18.182Z,150963.66
2023-04-19T08:21:43.937Z,150963.66
2023-04-19T08:24:09.720Z,150975.06
2023-04-19T08:26:35.600Z,151012.97
2023-04-19T08:29:02.560Z,150980.09
2023-04-19T08:31:28.484Z,151009.16
2023-04-19T08:33:54.518Z,151038.25
2023-04-19T08:36:32.542Z,151055.94
2023-04-19T08:39:06.887Z,151115.38
2023-04-19T08:41:36.560Z,151093.88
2023-04-19T08:44:03.173Z,151085.06
2023-04-19T08:46:30.736Z,151055.94
2023-04-19T08:48:58.396Z,151105.28
2023-04-19T08:51:26.148Z,151110.34
2023-04-19T08:53:54.236Z,151110.34
2023-04-19T08:56:31.903Z,151133.09
2023-04-19T08:59:19.308Z,151134.34
2023-04-19T09:01:45.919Z,151157.16
2023-04-19T09:04:34.847Z,151160.94
2023-04-19T09:06:57.551Z,151182.44
2023-04-19T09:09:37.044Z,151224.16
2023-04-19T09:12:16.948Z,151222.91
2023-04-19T09:14:59.969Z,151298.84
2023-04-19T09:17:27.581Z,151281.13
2023-04-19T09:19:53.427Z,151287.44
2023-04-19T09:22:19.307Z,151300.13
2023-04-19T09:27:35.569Z,151252.00
2023-04-19T09:30:04.873Z,151297.59
2023-04-19T09:32:46.683Z,151352.00
2023-04-19T09:35:12.644Z,151349.44
2023-04-19T09:38:01.922Z,151362.16
2023-04-19T09:40:27.188Z,151362.16
2023-04-19T09:48:08.782Z,151395.06
2023-04-19T09:50:46.757Z,151459.66
2023-04-19T09:53:20.717Z,151441.91
2023-04-19T09:55:59.672Z,151467.22
2023-04-19T09:58:34.440Z,151448.25
2023-04-19T10:01:14.243Z,151460.91
2023-04-19T10:03:45.145Z,151534.34
2023-04-19T10:06:40.099Z,151597.63
2023-04-19T10:09:03.637Z,151607.78
2023-04-19T10:11:37.814Z,151652.09
2023-04-19T10:14:08.670Z,151680.00
2023-04-19T10:16:36.151Z,151763.63
2023-04-19T10:19:05.403Z,151882.78
2023-04-19T10:21:32.611Z,151898.00
2023-04-19T10:23:59.303Z,151895.47
2023-04-19T10:26:25.303Z,151827.00
2023-04-19T10:28:53.138Z,151900.53
2023-04-19T10:31:23.082Z,151846.03
2023-04-19T10:33:50.938Z,151896.75
2023-04-19T10:36:18.073Z,151904.31
2023-04-19T10:38:48.991Z,151958.84
2023-04-19T10:41:17.413Z,152023.53
2023-04-19T10:44:07.728Z,152196.03
2023-04-19T10:46:35.221Z,152218.91
2023-04-19T10:49:02.860Z,152329.31
2023-04-19T10:51:36.442Z,152232.81
2023-04-19T10:54:03.803Z,152202.41
2023-04-19T10:56:35.427Z,152246.78
2023-04-19T10:59:01.256Z,152256.97
2023-04-19T11:01:37.487Z,152303.88
2023-04-19T11:04:03.890Z,152326.78
2023-04-19T11:06:30.253Z,152194.78
2023-04-19T11:08:56.968Z,152348.34
2023-04-19T11:11:24.931Z,152310.28
2023-04-19T11:14:01.691Z,152343.28
2023-04-19T11:16:42.001Z,152378.81
2023-04-19T11:19:18.419Z,152406.72
2023-04-19T11:21:45.693Z,152336.91
2023-04-19T11:24:12.452Z,152456.28
2023-04-19T11:26:38.440Z,152560.41
2023-04-19T11:29:12.130Z,152503.22
2023-04-19T11:31:59.528Z,152508.34
2023-04-19T11:34:44.313Z,152615.03
2023-04-19T11:37:11.144Z,152559.09
2023-04-19T11:39:45.663Z,152604.84
2023-04-19T11:42:18.710Z,152815.81
2023-04-19T11:44:51.716Z,152795.47
2023-04-19T11:47:19.360Z,152710.34
2023-04-19T11:49:45.453Z,152716.66
2023-04-19T11:52:11.247Z,152681.03
2023-04-19T11:54:37.072Z,152645.47
2023-04-19T11:57:07.791Z,152604.84
2023-04-19T11:59:35.243Z,152621.34
2023-04-19T12:02:12.054Z,152636.59
2023-04-19T12:04:38.886Z,152658.19
2023-04-19T12:07:06.248Z,152590.88
2023-04-19T12:09:36.165Z,152654.41
2023-04-19T12:12:02.545Z,152601.03
2023-04-19T12:14:29.656Z,152687.44
2023-04-19T12:17:10.281Z,152784.03
2023-04-19T12:19:43.954Z,152658.19
2023-04-19T12:22:14.932Z,152794.16
2023-04-19T12:24:41.415Z,152791.63
2023-04-19T12:27:07.923Z,152951.78
2023-04-19T12:29:34.292Z,152897.13
2023-04-19T12:32:00.698Z,152782.75
2023-04-19T12:34:27.115Z,152828.47
2023-04-19T12:36:53.458Z,152871.72
2023-04-19T12:39:19.386Z,152903.50
2023-04-19T12:41:47.559Z,152866.66
2023-04-19T12:44:14.128Z,152939.09
2023-04-19T12:46:40.180Z,153042.09
2023-04-19T12:49:06.026Z,153076.44
2023-04-19T12:51:32.039Z,153006.50
2023-04-19T12:53:57.983Z,152996.34
2023-04-19T12:56:23.879Z,152967.09
2023-04-19T12:58:49.629Z,152914.91
2023-04-19T13:01:15.541Z,152832.34
2023-04-19T13:03:41.504Z,152832.34
2023-04-19T13:06:07.412Z,152867.91
2023-04-19T13:08:41.485Z,152864.06
2023-04-19T13:11:09.579Z,152904.78
2023-04-19T13:13:35.403Z,152914.91
2023-04-19T13:16:01.372Z,152927.66
2023-04-19T13:18:27.211Z,152907.31
2023-04-19T13:20:57.230Z,152824.69
2023-04-19T13:23:23.063Z,152803.09
2023-04-19T13:25:48.839Z,152820.88
2023-04-19T13:28:14.662Z,152866.66
2023-04-19T13:30:40.448Z,152836.13
2023-04-19T13:33:08.241Z,152841.19
2023-04-19T13:35:34.802Z,152889.53
2023-04-19T13:38:00.657Z,152885.72
2023-04-19T13:40:26.452Z,152791.63
2023-04-19T13:42:54.227Z,152808.16
2023-04-19T13:45:20.314Z,152972.16
2023-04-19T13:47:46.262Z,152944.19
2023-04-19T13:50:13.230Z,152839.94
2023-04-19T13:52:39.084Z,152745.91
2023-04-19T13:55:05.146Z,152742.13
2023-04-19T13:57:30.882Z,152747.19
2023-04-19T13:59:56.679Z,152817.06
2023-04-19T14:02:22.678Z,152839.94
2023-04-19T14:04:48.760Z,152814.53
2023-04-19T14:07:14.551Z,152731.94
2023-04-19T14:09:41.701Z,152684.84
2023-04-19T14:12:08.498Z,152701.41
2023-04-19T14:14:34.296Z,152672.19
2023-04-19T14:17:00.163Z,152660.72
2023-04-19T14:19:26.065Z,152560.41
2023-04-19T14:21:51.852Z,152637.88
2023-04-19T14:24:17.925Z,152704.00
2023-04-19T14:26:44.052Z,152655.66
2023-04-19T14:29:10.025Z,152500.69
2023-04-19T14:31:35.923Z,152537.53
2023-04-19T14:34:01.734Z,152545.16
2023-04-19T14:36:27.650Z,152650.59
2023-04-19T14:38:53.539Z,152706.53
2023-04-19T14:41:19.313Z,152697.63
2023-04-19T14:43:45.491Z,152547.69
2023-04-19T14:46:11.496Z,152642.94
2023-04-19T14:48:37.412Z,152749.72
2023-04-19T14:51:03.354Z,152810.69
2023-04-19T14:53:29.202Z,152784.03
2023-04-19T14:55:55.071Z,152749.72
2023-04-19T14:58:20.877Z,152766.22
2023-04-19T15:00:46.671Z,152823.41
2023-04-19T15:03:12.661Z,152770.03
2023-04-19T15:05:38.559Z,152747.19
2023-04-19T15:08:04.762Z,152664.53
2023-04-19T15:10:30.730Z,152662.00
2023-04-19T15:12:57.294Z,152697.63
2023-04-19T15:15:23.109Z,152646.75
2023-04-19T15:17:48.987Z,152742.13
2023-04-19T15:20:14.909Z,152686.16
2023-04-19T15:22:41.212Z,152630.22
2023-04-19T15:25:07.365Z,152576.88
2023-04-19T15:27:33.669Z,152608.66
2023-04-19T15:29:59.498Z,152659.47
2023-04-19T15:32:25.689Z,152682.31
2023-04-19T15:34:51.553Z,152637.88
2023-04-19T15:37:17.339Z,152632.81
2023-04-19T15:39:43.176Z,152702.69
2023-04-19T15:42:09.093Z,152773.84
2023-04-19T15:44:35.146Z,152737.00
2023-04-19T15:47:01.104Z,152750.97
2023-04-19T15:49:27.033Z,152742.13
2023-04-19T15:51:52.816Z,152719.22
2023-04-19T15:54:20.833Z,152589.59
2023-04-19T15:56:46.709Z,152406.72
2023-04-19T15:59:12.499Z,152355.94
2023-04-19T16:01:38.758Z,152353.41
2023-04-19T16:04:05.148Z,152444.84
2023-04-19T16:06:31.203Z,152513.41
2023-04-19T16:08:57.050Z,152555.31
2023-04-19T16:11:23.093Z,152576.88
2023-04-19T16:13:49.072Z,152461.34
2023-04-19T16:16:15.143Z,152499.44
2023-04-19T16:18:40.934Z,152505.81
2023-04-19T16:21:06.682Z,152395.28
2023-04-19T16:23:33.548Z,152361.03
2023-04-19T16:25:59.397Z,152400.38
2023-04-19T16:28:25.307Z,152425.81
2023-04-19T16:30:51.426Z,152488.03
2023-04-19T16:33:17.350Z,152545.16
2023-04-19T16:35:43.988Z,152424.53
2023-04-19T16:38:10.073Z,152301.38
2023-04-19T16:40:35.972Z,152268.34
2023-04-19T16:43:01.932Z,152222.72
2023-04-19T16:45:27.846Z,152121.19
2023-04-19T16:47:53.707Z,152194.78
2023-04-19T16:50:19.821Z,152185.91
2023-04-19T16:52:45.656Z,152093.28
2023-04-19T16:55:11.546Z,151979.13
2023-04-19T16:57:37.465Z,151852.34
2023-04-19T17:00:05.835Z,151770.00
2023-04-19T17:02:32.912Z,151813.06
2023-04-19T17:04:59.202Z,151827.00
2023-04-19T17:07:25.135Z,151721.78
2023-04-19T17:09:51.006Z,151699.00
2023-04-19T17:12:16.866Z,151674.91
2023-04-19T17:14:42.628Z,151677.47
2023-04-19T17:17:08.542Z,151671.09
2023-04-19T17:19:35.779Z,151615.38
2023-04-19T17:22:04.517Z,151699.00
2023-04-19T17:24:31.784Z,151745.84
2023-04-19T17:26:59.598Z,151728.09
2023-04-19T17:29:25.513Z,151733.22
2023-04-19T17:31:51.375Z,151709.09
2023-04-19T17:34:17.800Z,151600.16
2023-04-19T17:36:43.691Z,151597.63
2023-04-19T17:39:10.417Z,151605.28
2023-04-19T17:41:36.308Z,151593.84
2023-04-19T17:44:02.226Z,151612.84
2023-04-19T17:46:28.236Z,151569.81
2023-04-19T17:48:54.803Z,151569.81
2023-04-19T17:51:20.643Z,151562.19
2023-04-19T17:53:46.861Z,151514.09
2023-04-19T17:56:12.636Z,151516.63
2023-04-19T17:58:38.390Z,151529.25
2023-04-19T18:01:05.802Z,151501.41
2023-04-19T18:03:31.869Z,151531.81
2023-04-19T18:05:57.960Z,151506.47
2023-04-19T18:08:23.970Z,151540.66
2023-04-19T18:10:50.375Z,151516.63
2023-04-19T18:13:16.334Z,151440.63
2023-04-19T18:15:42.333Z,151474.81
2023-04-19T18:18:08.384Z,151429.25
2023-04-19T18:20:34.447Z,151383.66
2023-04-19T18:23:00.927Z,151331.72
2023-04-19T18:25:28.387Z,151321.63
2023-04-19T18:27:54.849Z,151311.47
2023-04-19T18:30:21.124Z,151295.03
2023-04-19T18:32:46.953Z,151284.91
2023-04-19T18:35:12.958Z,151289.97
2023-04-19T18:37:38.820Z,151262.16
2023-04-19T18:40:06.430Z,151245.69
2023-04-19T18:42:32.436Z,151209.03
2023-04-19T18:44:58.261Z,151182.44
2023-04-19T18:47:27.413Z,151168.50
2023-04-19T18:50:04.422Z,151173.59
2023-04-19T18:52:31.606Z,151155.88
2023-04-19T18:54:57.671Z,151160.94
2023-04-19T18:57:27.195Z,151141.97
2023-04-19T18:59:55.429Z,151168.50
2023-04-19T19:02:21.305Z,151130.56
2023-04-19T19:04:56.270Z,151088.84
2023-04-19T19:07:35.614Z,151085.06
2023-04-19T19:10:10.696Z,151067.34
2023-04-19T19:12:43.969Z,151097.66
2023-04-19T19:15:09.910Z,151101.50
2023-04-19T19:17:35.897Z,151055.94
2023-04-19T19:20:02.028Z,151044.56
2023-04-19T19:22:29.167Z,151054.69
2023-04-19T19:24:55.860Z,151052.19
2023-04-19T19:27:21.691Z,151019.28
2023-04-19T19:29:47.804Z,150991.50
2023-04-19T19:32:13.755Z,150969.97
2023-04-19T19:34:51.272Z,150997.81
2023-04-19T19:37:20.271Z,150996.53
2023-04-19T19:39:46.526Z,151019.28
2023-04-19T19:42:15.479Z,151015.50
2023-04-19T19:44:41.323Z,151007.91
2023-04-19T19:47:10.311Z,150997.81
2023-04-19T19:49:51.952Z,150990.19
2023-04-19T19:52:22.519Z,150952.28
2023-04-19T19:54:48.332Z,150930.78
2023-04-19T19:57:48.419Z,150944.72
2023-04-19T20:00:18.155Z,150921.97
2023-04-19T20:02:54.883Z,150909.31
2023-04-19T20:05:23.336Z,150929.53
2023-04-19T20:10:18.922Z,150914.34
2023-04-19T20:12:46.451Z,150881.44
2023-04-19T20:15:12.825Z,150900.44
2023-04-19T20:17:39.954Z,150877.66
2023-04-19T20:20:10.565Z,150852.41
2023-04-19T20:22:36.998Z,150859.97
2023-04-19T20:25:02.973Z,150852.41
2023-04-19T20:27:28.821Z,150815.75
2023-04-19T20:29:55.374Z,150853.66
2023-04-19T20:32:21.562Z,150820.78
2023-04-19T20:34:47.795Z,150843.53
2023-04-19T20:37:13.736Z,150814.50
2023-04-19T20:39:39.879Z,150795.53
2023-04-19T20:42:06.653Z,150771.50
2023-04-19T20:44:33.273Z,150775.28
2023-04-19T20:46:59.201Z,150756.34
2023-04-19T20:49:25.152Z,150757.66
2023-04-19T20:51:51.255Z,150777.84
2023-04-19T20:54:18.009Z,150739.97
2023-04-19T20:56:43.928Z,150693.19
2023-04-19T20:59:09.782Z,150757.66
2023-04-19T21:01:35.924Z,150784.16
2023-04-19T21:04:01.967Z,150777.84
2023-04-19T21:06:30.813Z,150715.94
2023-04-19T21:08:58.549Z,150751.28
2023-04-19T21:11:24.559Z,150718.44
2023-04-19T21:13:50.384Z,150736.13
2023-04-19T21:16:16.284Z,150727.31
2023-04-19T21:18:42.101Z,150746.25
2023-04-19T21:21:07.991Z,150729.81
2023-04-19T21:23:34.159Z,150771.50
2023-04-19T21:26:01.795Z,150742.47
2023-04-19T21:28:27.713Z,150704.59
2023-04-19T21:30:54.713Z,150713.41
2023-04-19T21:33:20.531Z,150727.31
2023-04-19T21:35:46.333Z,150694.47
2023-04-19T21:38:12.222Z,150680.56
2023-04-19T21:40:38.040Z,150686.91
2023-04-19T21:43:03.919Z,150679.28
2023-04-19T21:45:29.791Z,150676.78
2023-04-19T21:47:55.597Z,150638.91
2023-04-19T21:50:21.449Z,150623.72
2023-04-19T21:52:47.220Z,150671.75
2023-04-19T21:55:13.091Z,150666.66
2023-04-19T21:57:38.905Z,150671.75
2023-04-19T22:00:08.560Z,150670.47
2023-04-19T22:02:35.014Z,150630.03
2023-04-19T22:05:02.057Z,150661.59
2023-04-19T22:07:30.347Z,150641.41
2023-04-19T22:09:57.229Z,150647.72
2023-04-19T22:12:23.863Z,150626.25
2023-04-19T22:14:50.598Z,150606.06
2023-04-19T22:17:19.171Z,150588.38
2023-04-19T22:19:46.182Z,150594.66
2023-04-19T22:22:12.092Z,150623.72
2023-04-19T22:24:46.761Z,150584.59
2023-04-19T22:27:19.435Z,150571.94
2023-04-19T22:29:45.191Z,150595.97
2023-04-19T22:32:11.042Z,150593.41
2023-04-19T22:34:36.941Z,150619.94
2023-04-19T22:37:02.811Z,150554.28
2023-04-19T22:39:28.614Z,150570.69
2023-04-19T22:41:54.562Z,150547.97
2023-04-19T22:44:20.580Z,150561.88
2023-04-19T22:46:46.705Z,150516.41
2023-04-19T22:49:12.554Z,150478.53
2023-04-19T22:51:38.741Z,150521.44
2023-04-19T22:54:04.793Z,150534.06
2023-04-19T22:56:30.672Z,150479.78
2023-04-19T22:58:56.801Z,150487.34
2023-04-19T23:01:22.668Z,150484.84
2023-04-19T23:03:48.630Z,150453.31
2023-04-19T23:06:17.163Z,150467.16
2023-04-19T23:08:43.037Z,150470.97
2023-04-19T23:11:11.621Z,150426.78
2023-04-19T23:13:37.482Z,150430.56
2023-04-19T23:16:07.164Z,150388.94
2023-04-19T23:18:33.029Z,150395.22
2023-04-19T23:21:00.586Z,150414.16
2023-04-19T23:23:26.377Z,150411.63
2023-04-19T23:25:52.182Z,150452.00
2023-04-19T23:28:17.953Z,150438.16
2023-04-19T23:30:43.683Z,150367.50
2023-04-19T23:33:09.659Z,150351.06
2023-04-19T23:35:35.435Z,150347.31
2023-04-19T23:38:01.198Z,150359.88
2023-04-19T23:40:27.155Z,150322.03
2023-04-19T23:42:52.899Z,150348.56
2023-04-19T23:45:18.850Z,150356.09
2023-04-19T23:47:44.674Z,150340.97
2023-04-19T23:50:10.628Z,150368.75
2023-04-19T23:52:36.519Z,150385.16
2023-04-19T23:55:02.537Z,150420.50
2023-04-19T23:57:28.440Z,150405.34
2023-04-19T23:59:54.171Z,150373.78
